Nyk Aquarius — HPPZ — position and weather

sailwx.info

Track history (hours):
 
Tides and Currents Weather Stations Pressure Air Temp Water Temp Dewpoint Dewpoint Depression Visibility Wind Speed Wind Dir Waves Ship Positions

Nyk Aquarius

Last reported at 2017-Sep-29 17:16 UTC. Time now 2017-Oct-17 17:14 UTC.
Position N 38°10' W 126°06'.
Warning: this ship's position is 17 days out of date.

Length 299.9 m; beam 40 m.

Type: Other ship. MMSI: 353295000.

Date/timePositionNaut miles runAvg speedWind from/ knotsBaromVisibWave heightAir tempDewpointWater temp
2017-Sep-29 17:16N 38°10' W 126°06'313.0
2017-Sep-29 17:00N 38°10' W 126°01'713.4
2017-Sep-29 16:29N 38°10' W 125°52'713.4
2017-Sep-29 15:59N 38°10' W 125°44'613.3
2017-Sep-29 15:30N 38°10' W 125°36'813.0
2017-Sep-29 14:54N 38°10' W 125°26'513.3
2017-Sep-29 14:31N 38°10' W 125°19'713.7
2017-Sep-29 14:00N 38°10' W 125°10'713.8
2017-Sep-29 13:30N 38°10' W 125°02'713.9
2017-Sep-29 13:00N 38°10' W 124°53'713.5
2017-Sep-29 12:30N 38°10' W 124°44'713.5
2017-Sep-29 12:00N 38°10' W 124°36'713.9
2017-Sep-29 11:30N 38°10' W 124°27'714.3
2017-Sep-29 11:00N 38°09' W 124°18'714.3
2017-Sep-29 10:30N 38°10' W 124°09'713.7
2017-Sep-29 10:00N 38°10' W 124°00'713.6
2017-Sep-29 09:30N 38°10' W 123°51'713.4
2017-Sep-29 09:00N 38°09' W 123°43'713.2
2017-Sep-29 08:30N 38°09' W 123°35'713.3
2017-Sep-29 08:00N 38°09' W 123°26'611.9
2017-Sep-29 07:30N 38°08' W 123°19'712.9
2017-Sep-29 07:00N 38°03' W 123°13'613.1
2017-Sep-29 06:30N 37°58' W 123°08'713.2
2017-Sep-29 06:00N 37°55' W 123°00'713.1
2017-Sep-29 05:30N 37°52' W 122°53'713.1
2017-Sep-29 05:00N 37°48' W 122°46'510.2
2017-Sep-29 04:30N 37°46' W 122°40'714.9
2017-Sep-29 04:00N 37°48' W 122°31'612.7
2017-Sep-29 03:30N 37°49' W 122°24'4 7.8
2017-Sep-29 03:00N 37°48' W 122°19'1 2.7
2017-Sep-29 02:31N 37°48' W 122°17'1 2.1
2017-Sep-29 02:01N 37°48' W 122°19'0 0.2
2017-Sep-29 01:30N 37°48' W 122°19'0 0.3
2017-Sep-29 00:59N 37°48' W 122°19'0 0.0
2017-Sep-29 00:29N 37°48' W 122°19'0 0.0
2017-Sep-28 23:59N 37°48' W 122°19'0 0.0
2017-Sep-28 23:29N 37°48' W 122°19'0 0.0
2017-Sep-28 22:59N 37°48' W 122°19'0 0.0
2017-Sep-28 22:29N 37°48' W 122°19'0 0.0
2017-Sep-28 21:59N 37°48' W 122°19'0 0.0
2017-Sep-28 21:29N 37°48' W 122°19'0 0.0
2017-Sep-28 20:59N 37°48' W 122°19'0 0.0
2017-Sep-28 20:29N 37°48' W 122°19'0 0.0
2017-Sep-28 19:56N 37°48' W 122°19'0 0.0
2017-Sep-28 19:29N 37°48' W 122°19'0 0.0
2017-Sep-28 18:59N 37°48' W 122°19'0 0.0
2017-Sep-28 18:29N 37°48' W 122°19'0 0.0
2017-Sep-28 17:59N 37°48' W 122°19'0 0.0
2017-Sep-28 17:29N 37°48' W 122°19'0 0.0
2017-Sep-28 16:59N 37°48' W 122°19'0 0.0
2017-Sep-28 16:29N 37°48' W 122°19'0 0.0
2017-Sep-28 15:59N 37°48' W 122°19'0 0.0
2017-Sep-28 15:29N 37°48' W 122°19'0 0.0
2017-Sep-28 14:59N 37°48' W 122°19'0 0.0
2017-Sep-28 14:29N 37°48' W 122°19'0 0.0
2017-Sep-28 13:59N 37°48' W 122°19'0 0.0
2017-Sep-28 13:29N 37°48' W 122°19'0 0.0
2017-Sep-28 12:59N 37°48' W 122°19'0 0.0
2017-Sep-28 12:29N 37°48' W 122°19'0 0.0
2017-Sep-28 11:59N 37°48' W 122°19'0 0.0
2017-Sep-28 11:29N 37°48' W 122°19'0 0.0
2017-Sep-28 10:59N 37°48' W 122°19'0 0.0
2017-Sep-28 10:29N 37°48' W 122°19'0 0.0
2017-Sep-28 09:59N 37°48' W 122°19'0 0.0
2017-Sep-28 09:29N 37°48' W 122°19'0 0.0
2017-Sep-28 08:59N 37°48' W 122°19'0 0.0
2017-Sep-28 08:30N 37°48' W 122°19'1 2.5
2017-Sep-28 08:00N 37°48' W 122°20'5 9.4
2017-Sep-28 07:30N 37°49' W 122°26'612.7
2017-Sep-28 07:00N 37°47' W 122°34'612.0
2017-Sep-28 06:30N 37°44' W 122°41'4 8.9
2017-Sep-28 06:00N 37°40' W 122°40'611.0
2017-Sep-28 05:30N 37°35' W 122°39'612.3
2017-Sep-28 05:00N 37°28' W 122°40'612.3
2017-Sep-28 04:30N 37°22' W 122°40'611.5
2017-Sep-28 04:00N 37°17' W 122°42'4 9.0
2017-Sep-28 03:30N 37°14' W 122°46'1 1.6
2017-Sep-28 03:00N 37°13' W 122°47'0 0.2
2017-Sep-28 02:30N 37°13' W 122°47'0 0.1
2017-Sep-28 02:00N 37°13' W 122°47'0 0.1
2017-Sep-28 01:30N 37°13' W 122°47'0 0.3
2017-Sep-28 01:01N 37°14' W 122°47'0 0.3
2017-Sep-28 00:30N 37°14' W 122°47'0 0.4
2017-Sep-28 00:00N 37°14' W 122°48'0 0.3
2017-Sep-27 23:30N 37°14' W 122°48'0 0.3
2017-Sep-27 23:00N 37°14' W 122°48'0 0.3
2017-Sep-27 22:30N 37°14' W 122°48'0 0.3
2017-Sep-27 22:00N 37°14' W 122°48'0 0.4
2017-Sep-27 21:30N 37°15' W 122°48'0 0.7
2017-Sep-27 21:00N 37°15' W 122°48'0 0.4
2017-Sep-27 20:30N 37°15' W 122°48'0 0.6
2017-Sep-27 20:00N 37°15' W 122°48'3 5.8
2017-Sep-27 19:30N 37°13' W 122°46'611.8
2017-Sep-27 19:00N 37°09' W 122°40'611.1
2017-Sep-27 18:30N 37°04' W 122°37'3 6.3
2017-Sep-27 18:00N 37°01' W 122°36'0 0.2
2017-Sep-27 17:30N 37°01' W 122°36'1 1.5
2017-Sep-27 17:00N 37°00' W 122°36'4 7.6
2017-Sep-27 16:30N 36°57' W 122°34'510.1
2017-Sep-27 16:00N 36°52' W 122°32'5 9.4
2017-Sep-27 15:30N 36°48' W 122°30'611.7
2017-Sep-27 15:00N 36°42' W 122°27'611.9
2017-Sep-27 14:30N 36°37' W 122°24'611.8
2017-Sep-27 14:00N 36°32' W 122°21'611.7
2017-Sep-27 13:30N 36°26' W 122°18'611.7
2017-Sep-27 13:00N 36°21' W 122°14'611.3
2017-Sep-27 12:30N 36°16' W 122°11'611.4
2017-Sep-27 12:00N 36°11' W 122°09'611.5
2017-Sep-27 11:30N 36°06' W 122°06'611.8
2017-Sep-27 11:00N 36°00' W 122°03'612.0
2017-Sep-27 10:30N 35°55' W 121°60'612.0
2017-Sep-27 10:00N 35°49' W 121°58'612.0
2017-Sep-27 09:30N 35°43' W 121°55'611.6
2017-Sep-27 09:00N 35°38' W 121°53'510.7
2017-Sep-27 08:30N 35°33' W 121°51'0 0.5
2017-Sep-27 08:00N 35°33' W 121°51'0 0.6
2017-Sep-27 07:30N 35°33' W 121°51'0 0.7
2017-Sep-27 07:00N 35°33' W 121°51'0 0.9
2017-Sep-27 06:30N 35°34' W 121°51'0 0.9
2017-Sep-27 06:00N 35°34' W 121°51'1 1.0
2017-Sep-27 05:29N 35°35' W 121°51'0 0.6
2017-Sep-27 05:00N 35°35' W 121°52'0 1.0
2017-Sep-27 04:30N 35°35' W 121°52'1 1.3
2017-Sep-27 04:00N 35°35' W 121°52'0 0.7
2017-Sep-27 03:30N 35°35' W 121°52'1 2.4
2017-Sep-27 03:00N 35°35' W 121°51'5 9.0
2017-Sep-27 02:30N 35°31' W 121°47'1 1.0
2017-Sep-27 01:38N 35°32' W 121°48'0 1.3
2017-Sep-27 01:30N 35°32' W 121°48'1 1.2
2017-Sep-27 00:59N 35°32' W 121°48'2 0.9
2017-Sep-26 22:30N 35°35' W 121°49'0 0.7
2017-Sep-26 22:00N 35°34' W 121°49'2 4.9
2017-Sep-26 21:30N 35°33' W 121°46'611.3
2017-Sep-26 21:00N 35°31' W 121°40'612.4
2017-Sep-26 20:30N 35°26' W 121°35'612.5
2017-Sep-26 20:00N 35°21' W 121°31'612.6
2017-Sep-26 19:30N 35°15' W 121°27'612.3
2017-Sep-26 19:00N 35°10' W 121°23'612.6
2017-Sep-26 18:30N 35°05' W 121°19'612.8
2017-Sep-26 18:00N 34°59' W 121°15'612.6
2017-Sep-26 17:30N 34°53' W 121°11'612.7
2017-Sep-26 17:00N 34°48' W 121°07'611.8
2017-Sep-26 16:30N 34°43' W 121°04'611.8
2017-Sep-26 16:00N 34°38' W 121°00'511.0
2017-Sep-26 15:30N 34°33' W 120°57'510.8
2017-Sep-26 15:00N 34°28' W 120°53'611.0
2017-Sep-26 14:29N 34°25' W 120°48'612.0
2017-Sep-26 14:00N 34°23' W 120°41'611.7
2017-Sep-26 13:30N 34°22' W 120°34'712.2
2017-Sep-26 12:58N 34°20' W 120°26'612.2
2017-Sep-26 12:28N 34°19' W 120°19'612.1
2017-Sep-26 12:00N 34°17' W 120°13'612.1
2017-Sep-26 11:30N 34°16' W 120°06'612.2
2017-Sep-26 11:00N 34°14' W 119°58'611.7
2017-Sep-26 10:30N 34°13' W 119°52'611.8
2017-Sep-26 10:00N 34°11' W 119°45'611.6
2017-Sep-26 09:30N 34°10' W 119°38'611.9
2017-Sep-26 09:00N 34°08' W 119°31'612.0
2017-Sep-26 08:30N 34°06' W 119°24'612.3
2017-Sep-26 08:00N 34°05' W 119°17'611.9
2017-Sep-26 07:30N 34°02' W 119°11'611.8
2017-Sep-26 07:00N 33°59' W 119°04'611.6
2017-Sep-26 06:30N 33°56' W 118°58'611.6
2017-Sep-26 06:00N 33°53' W 118°52'611.6
2017-Sep-26 05:30N 33°51' W 118°46'611.4
2017-Sep-26 05:00N 33°48' W 118°40'510.7
2017-Sep-26 04:30N 33°45' W 118°35'510.5
2017-Sep-26 04:00N 33°42' W 118°29'510.9
2017-Sep-26 03:30N 33°40' W 118°24'510.6
2017-Sep-26 03:00N 33°39' W 118°17'4 8.4
2017-Sep-26 02:30N 33°43' W 118°15'2 4.8
2017-Sep-26 02:00N 33°45' W 118°16'1 1.2
2017-Sep-26 01:28N 33°45' W 118°16'0 0.0
2017-Sep-26 00:58N 33°45' W 118°16'0 0.0
2017-Sep-26 00:28N 33°45' W 118°16'0 0.0
2017-Sep-25 23:55N 33°45' W 118°16'0 0.0
2017-Sep-25 23:28N 33°45' W 118°16'0 0.0
2017-Sep-25 22:58N 33°45' W 118°16'0 0.0
2017-Sep-25 21:52N 33°45' W 118°16'0 0.0
2017-Sep-25 21:04N 33°45' W 118°16'0 0.0
2017-Sep-25 20:37N 33°45' W 118°16'0 0.0
2017-Sep-25 20:28N 33°45' W 118°16'0 0.0
2017-Sep-25 19:58N 33°45' W 118°16'0 0.0
2017-Sep-25 19:25N 33°45' W 118°16'0 0.0
2017-Sep-25 18:46N 33°45' W 118°16'0 0.0
2017-Sep-25 18:22N 33°45' W 118°16'0 0.0
2017-Sep-25 17:58N 33°45' W 118°16'0 0.0
2017-Sep-25 17:28N 33°45' W 118°16'0 0.0
2017-Sep-25 16:58N 33°45' W 118°16'0 0.0
2017-Sep-25 16:28N 33°45' W 118°16'0 0.0
2017-Sep-25 15:58N 33°45' W 118°16'0 0.0
2017-Sep-25 15:28N 33°45' W 118°16'0 0.0
2017-Sep-25 14:58N 33°45' W 118°16'0 0.0
2017-Sep-25 14:25N 33°45' W 118°16'0 0.0
2017-Sep-25 13:58N 33°45' W 118°16'0 0.0
2017-Sep-25 13:28N 33°45' W 118°16'0 0.0
2017-Sep-25 12:58N 33°45' W 118°16'0 0.0
2017-Sep-25 12:28N 33°45' W 118°16'0 0.0
2017-Sep-25 11:58N 33°45' W 118°16'0 0.0
2017-Sep-25 11:25N 33°45' W 118°16'0 0.0
2017-Sep-25 10:58N 33°45' W 118°16'0 0.0
2017-Sep-25 10:28N 33°45' W 118°16'0 0.0
2017-Sep-25 09:58N 33°45' W 118°16'0 0.0
2017-Sep-25 09:28N 33°45' W 118°16'0 0.0
2017-Sep-25 08:46N 33°45' W 118°16'0 0.0
2017-Sep-25 08:25N 33°45' W 118°16'0 0.0
2017-Sep-25 07:58N 33°45' W 118°16'0 0.0
2017-Sep-25 07:28N 33°45' W 118°16'0 0.0
2017-Sep-25 06:58N 33°45' W 118°16'0 0.0
2017-Sep-25 06:28N 33°45' W 118°16'0 0.0
2017-Sep-25 05:52N 33°45' W 118°16'0 0.0
2017-Sep-25 05:28N 33°45' W 118°16'0 0.0
2017-Sep-25 04:58N 33°45' W 118°16'0 0.0
2017-Sep-25 04:28N 33°45' W 118°16'0 0.0
2017-Sep-25 03:22N 33°45' W 118°16'0 0.0
2017-Sep-25 02:46N 33°45' W 118°16'0 0.0
2017-Sep-25 02:28N 33°45' W 118°16'0 0.0
2017-Sep-25 01:58N 33°45' W 118°16'0 0.0
2017-Sep-25 01:28N 33°45' W 118°16'0 0.0
2017-Sep-25 00:58N 33°45' W 118°16'0 0.0
2017-Sep-25 00:28N 33°45' W 118°16'0 0.0
2017-Sep-24 23:58N 33°45' W 118°16'0 0.0
2017-Sep-24 23:28N 33°45' W 118°16'0 0.0
2017-Sep-24 22:58N 33°45' W 118°16'0 0.0
2017-Sep-24 22:28N 33°45' W 118°16'0 0.0
2017-Sep-24 21:34N 33°45' W 118°16'0 0.0
2017-Sep-24 21:22N 33°45' W 118°16'0 0.0
2017-Sep-24 20:58N 33°45' W 118°16'0 0.0
2017-Sep-24 20:28N 33°45' W 118°16'0 0.0
2017-Sep-24 19:58N 33°45' W 118°16'0 0.0
2017-Sep-24 19:28N 33°45' W 118°16'0 0.0
2017-Sep-24 18:58N 33°45' W 118°16'0 0.0
2017-Sep-24 18:28N 33°45' W 118°16'0 0.0
2017-Sep-24 17:58N 33°45' W 118°16'0 0.0
2017-Sep-24 17:25N 33°45' W 118°16'0 0.0
2017-Sep-24 16:58N 33°45' W 118°16'0 0.0
2017-Sep-24 16:28N 33°45' W 118°16'0 0.0
2017-Sep-24 15:58N 33°45' W 118°16'0 0.0
2017-Sep-24 15:28N 33°45' W 118°16'0 0.0
2017-Sep-24 14:55N 33°45' W 118°16'0 0.0
2017-Sep-24 14:28N 33°45' W 118°16'0 0.0
2017-Sep-24 13:58N 33°45' W 118°16'0 0.0
2017-Sep-24 13:28N 33°45' W 118°16'0 0.1
2017-Sep-24 12:58N 33°45' W 118°16'0 0.1
2017-Sep-24 12:28N 33°45' W 118°16'0 0.0
2017-Sep-24 11:58N 33°45' W 118°16'0 0.0
2017-Sep-24 11:28N 33°45' W 118°16'0 0.0
2017-Sep-24 10:58N 33°45' W 118°16'0 0.0
2017-Sep-24 10:22N 33°45' W 118°16'0 0.0
2017-Sep-24 09:58N 33°45' W 118°16'0 0.0
2017-Sep-24 09:28N 33°45' W 118°16'0 0.0
2017-Sep-24 08:52N 33°45' W 118°16'0 0.0
2017-Sep-24 08:28N 33°45' W 118°16'0 0.0
2017-Sep-24 07:58N 33°45' W 118°16'0 0.0
2017-Sep-24 07:16N 33°45' W 118°16'0 0.0
2017-Sep-24 06:52N 33°45' W 118°16'0 0.0
2017-Sep-24 06:10N 33°45' W 118°16'0 0.0
2017-Sep-24 05:55N 33°45' W 118°16'0 0.0
2017-Sep-24 05:28N 33°45' W 118°16'0 0.0
2017-Sep-24 04:58N 33°45' W 118°16'0 0.0
2017-Sep-24 04:28N 33°45' W 118°16'0 0.0
2017-Sep-24 03:58N 33°45' W 118°16'0 0.0
2017-Sep-24 03:28N 33°45' W 118°16'0 0.0
2017-Sep-24 02:58N 33°45' W 118°16'0 0.0
2017-Sep-24 02:28N 33°45' W 118°16'0 0.0
2017-Sep-24 01:58N 33°45' W 118°16'0 0.0
2017-Sep-24 01:28N 33°45' W 118°16'0 0.0
2017-Sep-24 00:58N 33°45' W 118°16'0 0.0
2017-Sep-24 00:28N 33°45' W 118°16'0 0.0
2017-Sep-23 23:58N 33°45' W 118°16'0 0.0
2017-Sep-23 23:28N 33°45' W 118°16'0 0.0
2017-Sep-23 22:58N 33°45' W 118°16'0 0.0
2017-Sep-23 22:28N 33°45' W 118°16'0 0.0
2017-Sep-23 21:58N 33°45' W 118°16'0 0.0
2017-Sep-23 21:28N 33°45' W 118°16'0 0.0
2017-Sep-23 20:58N 33°45' W 118°16'  
Track history (hours):
 
Tides and Currents Weather Stations Pressure Air Temp Water Temp Dewpoint Dewpoint Depression Visibility Wind Speed Wind Dir Waves Ship Positions

Nyk Aquarius

Last reported at 2017-Sep-29 17:16 UTC. Time now 2017-Oct-17 17:14 UTC.
Position N 38°10' W 126°06'.
Warning: this ship's position is 17 days out of date.

Length 299.9 m; beam 40 m.

Type: Other ship. MMSI: 353295000.

Date/timePositionNaut miles runAvg speedWind from/ knotsBaromVisibWave heightAir tempDewpointWater temp
2017-Sep-29 17:16N 38°10' W 126°06'313.0
2017-Sep-29 17:00N 38°10' W 126°01'713.4
2017-Sep-29 16:29N 38°10' W 125°52'713.4
2017-Sep-29 15:59N 38°10' W 125°44'613.3
2017-Sep-29 15:30N 38°10' W 125°36'813.0
2017-Sep-29 14:54N 38°10' W 125°26'513.3
2017-Sep-29 14:31N 38°10' W 125°19'713.7
2017-Sep-29 14:00N 38°10' W 125°10'713.8
2017-Sep-29 13:30N 38°10' W 125°02'713.9
2017-Sep-29 13:00N 38°10' W 124°53'713.5
2017-Sep-29 12:30N 38°10' W 124°44'713.5
2017-Sep-29 12:00N 38°10' W 124°36'713.9
2017-Sep-29 11:30N 38°10' W 124°27'714.3
2017-Sep-29 11:00N 38°09' W 124°18'714.3
2017-Sep-29 10:30N 38°10' W 124°09'713.7
2017-Sep-29 10:00N 38°10' W 124°00'713.6
2017-Sep-29 09:30N 38°10' W 123°51'713.4
2017-Sep-29 09:00N 38°09' W 123°43'713.2
2017-Sep-29 08:30N 38°09' W 123°35'713.3
2017-Sep-29 08:00N 38°09' W 123°26'611.9
2017-Sep-29 07:30N 38°08' W 123°19'712.9
2017-Sep-29 07:00N 38°03' W 123°13'613.1
2017-Sep-29 06:30N 37°58' W 123°08'713.2
2017-Sep-29 06:00N 37°55' W 123°00'713.1
2017-Sep-29 05:30N 37°52' W 122°53'713.1
2017-Sep-29 05:00N 37°48' W 122°46'510.2
2017-Sep-29 04:30N 37°46' W 122°40'714.9
2017-Sep-29 04:00N 37°48' W 122°31'612.7
2017-Sep-29 03:30N 37°49' W 122°24'4 7.8
2017-Sep-29 03:00N 37°48' W 122°19'1 2.7
2017-Sep-29 02:31N 37°48' W 122°17'1 2.1
2017-Sep-29 02:01N 37°48' W 122°19'0 0.2
2017-Sep-29 01:30N 37°48' W 122°19'0 0.3
2017-Sep-29 00:59N 37°48' W 122°19'0 0.0
2017-Sep-29 00:29N 37°48' W 122°19'0 0.0
2017-Sep-28 23:59N 37°48' W 122°19'0 0.0
2017-Sep-28 23:29N 37°48' W 122°19'0 0.0
2017-Sep-28 22:59N 37°48' W 122°19'0 0.0
2017-Sep-28 22:29N 37°48' W 122°19'0 0.0
2017-Sep-28 21:59N 37°48' W 122°19'0 0.0
2017-Sep-28 21:29N 37°48' W 122°19'0 0.0
2017-Sep-28 20:59N 37°48' W 122°19'0 0.0
2017-Sep-28 20:29N 37°48' W 122°19'0 0.0
2017-Sep-28 19:56N 37°48' W 122°19'0 0.0
2017-Sep-28 19:29N 37°48' W 122°19'0 0.0
2017-Sep-28 18:59N 37°48' W 122°19'0 0.0
2017-Sep-28 18:29N 37°48' W 122°19'0 0.0
2017-Sep-28 17:59N 37°48' W 122°19'0 0.0
2017-Sep-28 17:29N 37°48' W 122°19'0 0.0
2017-Sep-28 16:59N 37°48' W 122°19'0 0.0
2017-Sep-28 16:29N 37°48' W 122°19'0 0.0
2017-Sep-28 15:59N 37°48' W 122°19'0 0.0
2017-Sep-28 15:29N 37°48' W 122°19'0 0.0
2017-Sep-28 14:59N 37°48' W 122°19'0 0.0
2017-Sep-28 14:29N 37°48' W 122°19'0 0.0
2017-Sep-28 13:59N 37°48' W 122°19'0 0.0
2017-Sep-28 13:29N 37°48' W 122°19'0 0.0
2017-Sep-28 12:59N 37°48' W 122°19'0 0.0
2017-Sep-28 12:29N 37°48' W 122°19'0 0.0
2017-Sep-28 11:59N 37°48' W 122°19'0 0.0
2017-Sep-28 11:29N 37°48' W 122°19'0 0.0
2017-Sep-28 10:59N 37°48' W 122°19'0 0.0
2017-Sep-28 10:29N 37°48' W 122°19'0 0.0
2017-Sep-28 09:59N 37°48' W 122°19'0 0.0
2017-Sep-28 09:29N 37°48' W 122°19'0 0.0
2017-Sep-28 08:59N 37°48' W 122°19'0 0.0
2017-Sep-28 08:30N 37°48' W 122°19'1 2.5
2017-Sep-28 08:00N 37°48' W 122°20'5 9.4
2017-Sep-28 07:30N 37°49' W 122°26'612.7
2017-Sep-28 07:00N 37°47' W 122°34'612.0
2017-Sep-28 06:30N 37°44' W 122°41'4 8.9
2017-Sep-28 06:00N 37°40' W 122°40'611.0
2017-Sep-28 05:30N 37°35' W 122°39'612.3
2017-Sep-28 05:00N 37°28' W 122°40'612.3
2017-Sep-28 04:30N 37°22' W 122°40'611.5
2017-Sep-28 04:00N 37°17' W 122°42'4 9.0
2017-Sep-28 03:30N 37°14' W 122°46'1 1.6
2017-Sep-28 03:00N 37°13' W 122°47'0 0.2
2017-Sep-28 02:30N 37°13' W 122°47'0 0.1
2017-Sep-28 02:00N 37°13' W 122°47'0 0.1
2017-Sep-28 01:30N 37°13' W 122°47'0 0.3
2017-Sep-28 01:01N 37°14' W 122°47'0 0.3
2017-Sep-28 00:30N 37°14' W 122°47'0 0.4
2017-Sep-28 00:00N 37°14' W 122°48'0 0.3
2017-Sep-27 23:30N 37°14' W 122°48'0 0.3
2017-Sep-27 23:00N 37°14' W 122°48'0 0.3
2017-Sep-27 22:30N 37°14' W 122°48'0 0.3
2017-Sep-27 22:00N 37°14' W 122°48'0 0.4
2017-Sep-27 21:30N 37°15' W 122°48'0 0.7
2017-Sep-27 21:00N 37°15' W 122°48'0 0.4
2017-Sep-27 20:30N 37°15' W 122°48'0 0.6
2017-Sep-27 20:00N 37°15' W 122°48'3 5.8
2017-Sep-27 19:30N 37°13' W 122°46'611.8
2017-Sep-27 19:00N 37°09' W 122°40'611.1
2017-Sep-27 18:30N 37°04' W 122°37'3 6.3
2017-Sep-27 18:00N 37°01' W 122°36'0 0.2
2017-Sep-27 17:30N 37°01' W 122°36'1 1.5
2017-Sep-27 17:00N 37°00' W 122°36'4 7.6
2017-Sep-27 16:30N 36°57' W 122°34'510.1
2017-Sep-27 16:00N 36°52' W 122°32'5 9.4
2017-Sep-27 15:30N 36°48' W 122°30'611.7
2017-Sep-27 15:00N 36°42' W 122°27'611.9
2017-Sep-27 14:30N 36°37' W 122°24'611.8
2017-Sep-27 14:00N 36°32' W 122°21'611.7
2017-Sep-27 13:30N 36°26' W 122°18'611.7
2017-Sep-27 13:00N 36°21' W 122°14'611.3
2017-Sep-27 12:30N 36°16' W 122°11'611.4
2017-Sep-27 12:00N 36°11' W 122°09'611.5
2017-Sep-27 11:30N 36°06' W 122°06'611.8
2017-Sep-27 11:00N 36°00' W 122°03'612.0
2017-Sep-27 10:30N 35°55' W 121°60'612.0
2017-Sep-27 10:00N 35°49' W 121°58'612.0
2017-Sep-27 09:30N 35°43' W 121°55'611.6
2017-Sep-27 09:00N 35°38' W 121°53'510.7
2017-Sep-27 08:30N 35°33' W 121°51'0 0.5
2017-Sep-27 08:00N 35°33' W 121°51'0 0.6
2017-Sep-27 07:30N 35°33' W 121°51'0 0.7
2017-Sep-27 07:00N 35°33' W 121°51'0 0.9
2017-Sep-27 06:30N 35°34' W 121°51'0 0.9
2017-Sep-27 06:00N 35°34' W 121°51'1 1.0
2017-Sep-27 05:29N 35°35' W 121°51'0 0.6
2017-Sep-27 05:00N 35°35' W 121°52'0 1.0
2017-Sep-27 04:30N 35°35' W 121°52'1 1.3
2017-Sep-27 04:00N 35°35' W 121°52'0 0.7
2017-Sep-27 03:30N 35°35' W 121°52'1 2.4
2017-Sep-27 03:00N 35°35' W 121°51'5 9.0
2017-Sep-27 02:30N 35°31' W 121°47'1 1.0
2017-Sep-27 01:38N 35°32' W 121°48'0 1.3
2017-Sep-27 01:30N 35°32' W 121°48'1 1.2
2017-Sep-27 00:59N 35°32' W 121°48'2 0.9
2017-Sep-26 22:30N 35°35' W 121°49'0 0.7
2017-Sep-26 22:00N 35°34' W 121°49'2 4.9
2017-Sep-26 21:30N 35°33' W 121°46'611.3
2017-Sep-26 21:00N 35°31' W 121°40'612.4
2017-Sep-26 20:30N 35°26' W 121°35'612.5
2017-Sep-26 20:00N 35°21' W 121°31'612.6
2017-Sep-26 19:30N 35°15' W 121°27'612.3
2017-Sep-26 19:00N 35°10' W 121°23'612.6
2017-Sep-26 18:30N 35°05' W 121°19'612.8
2017-Sep-26 18:00N 34°59' W 121°15'612.6
2017-Sep-26 17:30N 34°53' W 121°11'612.7
2017-Sep-26 17:00N 34°48' W 121°07'611.8
2017-Sep-26 16:30N 34°43' W 121°04'611.8
2017-Sep-26 16:00N 34°38' W 121°00'511.0
2017-Sep-26 15:30N 34°33' W 120°57'510.8
2017-Sep-26 15:00N 34°28' W 120°53'611.0
2017-Sep-26 14:29N 34°25' W 120°48'612.0
2017-Sep-26 14:00N 34°23' W 120°41'611.7
2017-Sep-26 13:30N 34°22' W 120°34'712.2
2017-Sep-26 12:58N 34°20' W 120°26'612.2
2017-Sep-26 12:28N 34°19' W 120°19'612.1
2017-Sep-26 12:00N 34°17' W 120°13'612.1
2017-Sep-26 11:30N 34°16' W 120°06'612.2
2017-Sep-26 11:00N 34°14' W 119°58'611.7
2017-Sep-26 10:30N 34°13' W 119°52'611.8
2017-Sep-26 10:00N 34°11' W 119°45'611.6
2017-Sep-26 09:30N 34°10' W 119°38'611.9
2017-Sep-26 09:00N 34°08' W 119°31'612.0
2017-Sep-26 08:30N 34°06' W 119°24'612.3
2017-Sep-26 08:00N 34°05' W 119°17'611.9
2017-Sep-26 07:30N 34°02' W 119°11'611.8
2017-Sep-26 07:00N 33°59' W 119°04'611.6
2017-Sep-26 06:30N 33°56' W 118°58'611.6
2017-Sep-26 06:00N 33°53' W 118°52'611.6
2017-Sep-26 05:30N 33°51' W 118°46'611.4
2017-Sep-26 05:00N 33°48' W 118°40'510.7
2017-Sep-26 04:30N 33°45' W 118°35'510.5
2017-Sep-26 04:00N 33°42' W 118°29'510.9
2017-Sep-26 03:30N 33°40' W 118°24'510.6
2017-Sep-26 03:00N 33°39' W 118°17'4 8.4
2017-Sep-26 02:30N 33°43' W 118°15'2 4.8
2017-Sep-26 02:00N 33°45' W 118°16'1 1.2
2017-Sep-26 01:28N 33°45' W 118°16'0 0.0
2017-Sep-26 00:58N 33°45' W 118°16'0 0.0
2017-Sep-26 00:28N 33°45' W 118°16'0 0.0
2017-Sep-25 23:55N 33°45' W 118°16'0 0.0
2017-Sep-25 23:28N 33°45' W 118°16'0 0.0
2017-Sep-25 22:58N 33°45' W 118°16'0 0.0
2017-Sep-25 21:52N 33°45' W 118°16'0 0.0
2017-Sep-25 21:04N 33°45' W 118°16'0 0.0
2017-Sep-25 20:37N 33°45' W 118°16'0 0.0
2017-Sep-25 20:28N 33°45' W 118°16'0 0.0
2017-Sep-25 19:58N 33°45' W 118°16'0 0.0
2017-Sep-25 19:25N 33°45' W 118°16'0 0.0
2017-Sep-25 18:46N 33°45' W 118°16'0 0.0
2017-Sep-25 18:22N 33°45' W 118°16'0 0.0
2017-Sep-25 17:58N 33°45' W 118°16'0 0.0
2017-Sep-25 17:28N 33°45' W 118°16'0 0.0
2017-Sep-25 16:58N 33°45' W 118°16'0 0.0
2017-Sep-25 16:28N 33°45' W 118°16'0 0.0
2017-Sep-25 15:58N 33°45' W 118°16'0 0.0
2017-Sep-25 15:28N 33°45' W 118°16'0 0.0
2017-Sep-25 14:58N 33°45' W 118°16'0 0.0
2017-Sep-25 14:25N 33°45' W 118°16'0 0.0
2017-Sep-25 13:58N 33°45' W 118°16'0 0.0
2017-Sep-25 13:28N 33°45' W 118°16'0 0.0
2017-Sep-25 12:58N 33°45' W 118°16'0 0.0
2017-Sep-25 12:28N 33°45' W 118°16'0 0.0
2017-Sep-25 11:58N 33°45' W 118°16'0 0.0
2017-Sep-25 11:25N 33°45' W 118°16'0 0.0
2017-Sep-25 10:58N 33°45' W 118°16'0 0.0
2017-Sep-25 10:28N 33°45' W 118°16'0 0.0
2017-Sep-25 09:58N 33°45' W 118°16'0 0.0
2017-Sep-25 09:28N 33°45' W 118°16'0 0.0
2017-Sep-25 08:46N 33°45' W 118°16'0 0.0
2017-Sep-25 08:25N 33°45' W 118°16'0 0.0
2017-Sep-25 07:58N 33°45' W 118°16'0 0.0
2017-Sep-25 07:28N 33°45' W 118°16'0 0.0
2017-Sep-25 06:58N 33°45' W 118°16'0 0.0
2017-Sep-25 06:28N 33°45' W 118°16'0 0.0
2017-Sep-25 05:52N 33°45' W 118°16'0 0.0
2017-Sep-25 05:28N 33°45' W 118°16'0 0.0
2017-Sep-25 04:58N 33°45' W 118°16'0 0.0
2017-Sep-25 04:28N 33°45' W 118°16'0 0.0
2017-Sep-25 03:22N 33°45' W 118°16'0 0.0
2017-Sep-25 02:46N 33°45' W 118°16'0 0.0
2017-Sep-25 02:28N 33°45' W 118°16'0 0.0
2017-Sep-25 01:58N 33°45' W 118°16'0 0.0
2017-Sep-25 01:28N 33°45' W 118°16'0 0.0
2017-Sep-25 00:58N 33°45' W 118°16'0 0.0
2017-Sep-25 00:28N 33°45' W 118°16'0 0.0
2017-Sep-24 23:58N 33°45' W 118°16'0 0.0
2017-Sep-24 23:28N 33°45' W 118°16'0 0.0
2017-Sep-24 22:58N 33°45' W 118°16'0 0.0
2017-Sep-24 22:28N 33°45' W 118°16'0 0.0
2017-Sep-24 21:34N 33°45' W 118°16'0 0.0
2017-Sep-24 21:22N 33°45' W 118°16'0 0.0
2017-Sep-24 20:58N 33°45' W 118°16'0 0.0
2017-Sep-24 20:28N 33°45' W 118°16'0 0.0
2017-Sep-24 19:58N 33°45' W 118°16'0 0.0
2017-Sep-24 19:28N 33°45' W 118°16'0 0.0
2017-Sep-24 18:58N 33°45' W 118°16'0 0.0
2017-Sep-24 18:28N 33°45' W 118°16'0 0.0
2017-Sep-24 17:58N 33°45' W 118°16'0 0.0
2017-Sep-24 17:25N 33°45' W 118°16'0 0.0
2017-Sep-24 16:58N 33°45' W 118°16'0 0.0
2017-Sep-24 16:28N 33°45' W 118°16'0 0.0
2017-Sep-24 15:58N 33°45' W 118°16'0 0.0
2017-Sep-24 15:28N 33°45' W 118°16'0 0.0
2017-Sep-24 14:55N 33°45' W 118°16'0 0.0
2017-Sep-24 14:28N 33°45' W 118°16'0 0.0
2017-Sep-24 13:58N 33°45' W 118°16'0 0.0
2017-Sep-24 13:28N 33°45' W 118°16'0 0.1
2017-Sep-24 12:58N 33°45' W 118°16'0 0.1
2017-Sep-24 12:28N 33°45' W 118°16'0 0.0
2017-Sep-24 11:58N 33°45' W 118°16'0 0.0
2017-Sep-24 11:28N 33°45' W 118°16'0 0.0
2017-Sep-24 10:58N 33°45' W 118°16'0 0.0
2017-Sep-24 10:22N 33°45' W 118°16'0 0.0
2017-Sep-24 09:58N 33°45' W 118°16'0 0.0
2017-Sep-24 09:28N 33°45' W 118°16'0 0.0
2017-Sep-24 08:52N 33°45' W 118°16'0 0.0
2017-Sep-24 08:28N 33°45' W 118°16'0 0.0
2017-Sep-24 07:58N 33°45' W 118°16'0 0.0
2017-Sep-24 07:16N 33°45' W 118°16'0 0.0
2017-Sep-24 06:52N 33°45' W 118°16'0 0.0
2017-Sep-24 06:10N 33°45' W 118°16'0 0.0
2017-Sep-24 05:55N 33°45' W 118°16'0 0.0
2017-Sep-24 05:28N 33°45' W 118°16'0 0.0
2017-Sep-24 04:58N 33°45' W 118°16'0 0.0
2017-Sep-24 04:28N 33°45' W 118°16'0 0.0
2017-Sep-24 03:58N 33°45' W 118°16'0 0.0
2017-Sep-24 03:28N 33°45' W 118°16'0 0.0
2017-Sep-24 02:58N 33°45' W 118°16'0 0.0
2017-Sep-24 02:28N 33°45' W 118°16'0 0.0
2017-Sep-24 01:58N 33°45' W 118°16'0 0.0
2017-Sep-24 01:28N 33°45' W 118°16'0 0.0
2017-Sep-24 00:58N 33°45' W 118°16'0 0.0
2017-Sep-24 00:28N 33°45' W 118°16'0 0.0
2017-Sep-23 23:58N 33°45' W 118°16'0 0.0
2017-Sep-23 23:28N 33°45' W 118°16'0 0.0
2017-Sep-23 22:58N 33°45' W 118°16'0 0.0
2017-Sep-23 22:28N 33°45' W 118°16'0 0.0
2017-Sep-23 21:58N 33°45' W 118°16'0 0.0
2017-Sep-23 21:28N 33°45' W 118°16'0 0.0
2017-Sep-23 20:58N 33°45' W 118°16'  

Dump ship's entire track history